sensor_id;sensor_type;location;lat;lon;timestamp;pressure;altitude;pressure_sealevel;temperature;humidity
45323;BME280;31382;50.200;8.674;2023-05-21T00:03:23;100145.28;;;18.23;58.47
45323;BME280;31382;50.200;8.674;2023-05-21T00:08:27;100138.41;;;18.20;58.49
45323;BME280;31382;50.200;8.674;2023-05-21T00:13:29;100135.22;;;18.23;58.43
45323;BME280;31382;50.200;8.674;2023-05-21T00:18:30;100138.19;;;18.22;58.75
45323;BME280;31382;50.200;8.674;2023-05-21T00:23:32;100138.19;;;18.22;58.58
45323;BME280;31382;50.200;8.674;2023-05-21T00:28:34;100123.75;;;18.21;58.58
45323;BME280;31382;50.200;8.674;2023-05-21T00:33:35;100133.81;;;18.21;58.94
45323;BME280;31382;50.200;8.674;2023-05-21T00:38:37;100121.03;;;18.21;58.54
45323;BME280;31382;50.200;8.674;2023-05-21T00:43:38;100116.41;;;18.22;58.77
45323;BME280;31382;50.200;8.674;2023-05-21T00:48:41;100109.31;;;18.21;58.71
45323;BME280;31382;50.200;8.674;2023-05-21T00:53:44;100100.56;;;18.19;58.91
45323;BME280;31382;50.200;8.674;2023-05-21T00:58:46;100101.03;;;18.16;58.86
45323;BME280;31382;50.200;8.674;2023-05-21T01:03:48;100094.84;;;18.09;59.16
45323;BME280;31382;50.200;8.674;2023-05-21T01:08:49;100090.47;;;18.08;59.33
45323;BME280;31382;50.200;8.674;2023-05-21T01:13:51;100098.25;;;18.04;59.33
45323;BME280;31382;50.200;8.674;2023-05-21T01:18:52;100088.78;;;18.07;59.24
45323;BME280;31382;50.200;8.674;2023-05-21T01:23:54;100081.22;;;18.09;59.39
45323;BME280;31382;50.200;8.674;2023-05-21T01:28:56;100075.78;;;18.09;59.25
45323;BME280;31382;50.200;8.674;2023-05-21T01:34:00;100067.50;;;18.03;59.62
45323;BME280;31382;50.200;8.674;2023-05-21T01:39:15;100064.66;;;17.98;59.47
45323;BME280;31382;50.200;8.674;2023-05-21T01:44:20;100063.84;;;17.98;59.81
45323;BME280;31382;50.200;8.674;2023-05-21T01:49:23;100063.13;;;18.02;59.56
45323;BME280;31382;50.200;8.674;2023-05-21T01:54:25;100063.59;;;17.99;59.42
45323;BME280;31382;50.200;8.674;2023-05-21T01:59:26;100064.78;;;18.03;59.53
45323;BME280;31382;50.200;8.674;2023-05-21T02:04:28;100059.13;;;18.05;59.72
45323;BME280;31382;50.200;8.674;2023-05-21T02:09:29;100058.97;;;18.00;59.69
45323;BME280;31382;50.200;8.674;2023-05-21T02:14:30;100051.97;;;17.92;59.71
45323;BME280;31382;50.200;8.674;2023-05-21T02:19:33;100054.09;;;17.90;60.25
45323;BME280;31382;50.200;8.674;2023-05-21T02:24:35;100056.22;;;17.88;60.26
45323;BME280;31382;50.200;8.674;2023-05-21T02:29:37;100060.78;;;17.76;60.55
45323;BME280;31382;50.200;8.674;2023-05-21T02:34:38;100050.34;;;17.73;60.45
45323;BME280;31382;50.200;8.674;2023-05-21T02:39:42;100053.91;;;17.73;60.72
45323;BME280;31382;50.200;8.674;2023-05-21T02:44:43;100053.44;;;17.76;60.54
45323;BME280;31382;50.200;8.674;2023-05-21T02:49:45;100043.50;;;17.70;60.90
45323;BME280;31382;50.200;8.674;2023-05-21T02:54:47;100044.69;;;17.74;60.82
45323;BME280;31382;50.200;8.674;2023-05-21T02:59:48;100045.28;;;17.76;60.64
45323;BME280;31382;50.200;8.674;2023-05-21T03:04:50;100046.34;;;17.75;60.79
45323;BME280;31382;50.200;8.674;2023-05-21T03:09:51;100040.91;;;17.75;60.81
45323;BME280;31382;50.200;8.674;2023-05-21T03:14:53;100040.53;;;17.72;60.96
45323;BME280;31382;50.200;8.674;2023-05-21T03:19:54;100043.38;;;17.77;60.81
45323;BME280;31382;50.200;8.674;2023-05-21T03:24:56;100040.91;;;17.75;61.15
45323;BME280;31382;50.200;8.674;2023-05-21T03:29:58;100041.75;;;17.76;61.19
45323;BME280;31382;50.200;8.674;2023-05-21T03:34:59;100037.94;;;17.77;61.44
45323;BME280;31382;50.200;8.674;2023-05-21T03:40:01;100033.81;;;17.74;61.42
45323;BME280;31382;50.200;8.674;2023-05-21T03:45:02;100039.25;;;17.74;61.54
45323;BME280;31382;50.200;8.674;2023-05-21T03:50:04;100039.09;;;17.69;61.77
45323;BME280;31382;50.200;8.674;2023-05-21T03:55:06;100035.19;;;17.65;61.49
45323;BME280;31382;50.200;8.674;2023-05-21T04:00:08;100040.63;;;17.65;61.67
45323;BME280;31382;50.200;8.674;2023-05-21T04:05:10;100043.94;;;17.67;61.83
45323;BME280;31382;50.200;8.674;2023-05-21T04:10:11;100045.59;;;17.68;61.85
45323;BME280;31382;50.200;8.674;2023-05-21T04:15:13;100049.03;;;17.63;61.78
45323;BME280;31382;50.200;8.674;2023-05-21T04:20:14;100042.28;;;17.66;61.56
45323;BME280;31382;50.200;8.674;2023-05-21T04:25:16;100047.03;;;17.71;61.94
45323;BME280;31382;50.200;8.674;2023-05-21T04:30:18;100050.88;;;17.81;61.44
45323;BME280;31382;50.200;8.674;2023-05-21T04:35:20;100052.31;;;17.84;61.73
45323;BME280;31382;50.200;8.674;2023-05-21T04:40:21;100060.47;;;17.84;61.84
45323;BME280;31382;50.200;8.674;2023-05-21T04:45:24;100060.63;;;17.89;61.79
45323;BME280;31382;50.200;8.674;2023-05-21T04:50:25;100057.56;;;17.97;61.58
45323;BME280;31382;50.200;8.674;2023-05-21T04:55:27;100056.63;;;18.03;61.21
45323;BME280;31382;50.200;8.674;2023-05-21T05:00:29;100051.78;;;18.06;61.50
45323;BME280;31382;50.200;8.674;2023-05-21T05:05:30;100056.91;;;18.14;61.54
45323;BME280;31382;50.200;8.674;2023-05-21T05:10:31;100060.94;;;18.23;61.07
45323;BME280;31382;50.200;8.674;2023-05-21T05:55:25;100049.59;;;19.20;60.01
45323;BME280;31382;50.200;8.674;2023-05-21T06:00:29;100050.75;;;19.25;60.03
45323;BME280;31382;50.200;8.674;2023-05-21T06:05:30;100052.88;;;19.34;59.92
45323;BME280;31382;50.200;8.674;2023-05-21T06:10:32;100056.72;;;19.50;59.49
45323;BME280;31382;50.200;8.674;2023-05-21T06:15:33;100043.22;;;19.55;59.64
45323;BME280;31382;50.200;8.674;2023-05-21T06:20:35;100052.41;;;19.66;59.40
45323;BME280;31382;50.200;8.674;2023-05-21T06:25:37;100060.00;;;19.76;59.26
45323;BME280;31382;50.200;8.674;2023-05-21T06:30:40;100052.50;;;19.83;59.23
45323;BME280;31382;50.200;8.674;2023-05-21T06:35:42;100056.31;;;19.99;58.72
45323;BME280;31382;50.200;8.674;2023-05-21T06:40:43;100051.44;;;20.01;58.68
45323;BME280;31382;50.200;8.674;2023-05-21T06:45:47;100042.09;;;20.14;58.30
45323;BME280;31382;50.200;8.674;2023-05-21T06:50:49;100044.75;;;20.26;58.19
45323;BME280;31382;50.200;8.674;2023-05-21T06:55:50;100050.16;;;20.37;57.88
45323;BME280;31382;50.200;8.674;2023-05-21T07:00:54;100056.28;;;20.45;57.90
45323;BME280;31382;50.200;8.674;2023-05-21T07:05:58;100055.09;;;20.57;57.37
45323;BME280;31382;50.200;8.674;2023-05-21T07:10:59;100051.72;;;20.67;57.25
45323;BME280;31382;50.200;8.674;2023-05-21T07:16:01;100045.09;;;20.80;56.76
45323;BME280;31382;50.200;8.674;2023-05-21T07:21:03;100054.41;;;21.01;56.47
45323;BME280;31382;50.200;8.674;2023-05-21T07:26:04;100053.66;;;21.28;55.69
45323;BME280;31382;50.200;8.674;2023-05-21T07:31:06;100048.78;;;21.52;55.13
45323;BME280;31382;50.200;8.674;2023-05-21T07:36:08;100045.50;;;21.77;54.70
45323;BME280;31382;50.200;8.674;2023-05-21T07:41:10;100040.78;;;21.99;54.35
45323;BME280;31382;50.200;8.674;2023-05-21T07:46:11;100045.34;;;22.16;54.04
45323;BME280;31382;50.200;8.674;2023-05-21T07:51:13;100036.19;;;22.32;53.44
45323;BME280;31382;50.200;8.674;2023-05-21T07:56:14;100029.34;;;22.35;53.41
45323;BME280;31382;50.200;8.674;2023-05-21T08:01:16;100031.97;;;22.52;52.60
45323;BME280;31382;50.200;8.674;2023-05-21T08:06:17;100028.16;;;22.58;52.79
45323;BME280;31382;50.200;8.674;2023-05-21T08:11:19;100036.69;;;22.67;52.41
45323;BME280;31382;50.200;8.674;2023-05-21T08:16:22;100045.03;;;22.82;52.17
45323;BME280;31382;50.200;8.674;2023-05-21T08:21:23;100037.41;;;22.94;51.63
45323;BME280;31382;50.200;8.674;2023-05-21T08:26:25;100034.72;;;23.00;51.71
45323;BME280;31382;50.200;8.674;2023-05-21T08:31:26;100042.94;;;23.00;51.53
45323;BME280;31382;50.200;8.674;2023-05-21T08:36:28;100046.59;;;23.15;51.38
45323;BME280;31382;50.200;8.674;2023-05-21T08:41:30;100032.38;;;23.24;51.21
45323;BME280;31382;50.200;8.674;2023-05-21T08:46:34;100032.13;;;23.25;51.19
45323;BME280;31382;50.200;8.674;2023-05-21T08:51:36;100035.41;;;23.27;50.93
45323;BME280;31382;50.200;8.674;2023-05-21T08:56:40;100029.16;;;23.37;50.65
45323;BME280;31382;50.200;8.674;2023-05-21T09:01:46;100023.97;;;23.51;50.38
45323;BME280;31382;50.200;8.674;2023-05-21T09:06:50;100023.69;;;23.47;50.46
45323;BME280;31382;50.200;8.674;2023-05-21T09:11:52;100027.25;;;23.43;50.56
45323;BME280;31382;50.200;8.674;2023-05-21T09:16:53;100026.72;;;23.51;50.58
45323;BME280;31382;50.200;8.674;2023-05-21T09:22:00;100023.25;;;23.86;50.02
45323;BME280;31382;50.200;8.674;2023-05-21T09:27:05;100017.25;;;24.10;50.01
45323;BME280;31382;50.200;8.674;2023-05-21T09:32:08;100009.56;;;24.53;49.49
45323;BME280;31382;50.200;8.674;2023-05-21T09:37:10;100011.41;;;24.83;48.73
45323;BME280;31382;50.200;8.674;2023-05-21T09:42:28;100012.69;;;25.11;47.85
45323;BME280;31382;50.200;8.674;2023-05-21T09:47:29;100012.31;;;25.39;47.29
45323;BME280;31382;50.200;8.674;2023-05-21T09:52:35;100005.56;;;25.65;46.85
45323;BME280;31382;50.200;8.674;2023-05-21T09:57:44;100000.53;;;25.78;46.87
45323;BME280;31382;50.200;8.674;2023-05-21T10:02:49;99997.00;;;26.11;46.27
45323;BME280;31382;50.200;8.674;2023-05-21T10:07:51;99988.50;;;26.37;45.74
45323;BME280;31382;50.200;8.674;2023-05-21T10:12:58;99983.16;;;26.75;45.39
45323;BME280;31382;50.200;8.674;2023-05-21T10:18:02;99973.59;;;26.91;44.61
45323;BME280;31382;50.200;8.674;2023-05-21T10:23:04;99976.53;;;27.00;44.48
45323;BME280;31382;50.200;8.674;2023-05-21T10:28:06;99974.88;;;27.23;44.47
45323;BME280;31382;50.200;8.674;2023-05-21T10:33:07;99965.50;;;27.43;43.83
45323;BME280;31382;50.200;8.674;2023-05-21T10:38:10;99965.81;;;27.61;43.50
45323;BME280;31382;50.200;8.674;2023-05-21T10:54:03;99951.78;;;28.42;41.98
45323;BME280;31382;50.200;8.674;2023-05-21T10:59:46;99944.03;;;28.72;41.48
45323;BME280;31382;50.200;8.674;2023-05-21T11:04:57;99949.75;;;28.75;40.70
45323;BME280;31382;50.200;8.674;2023-05-21T11:10:30;99954.06;;;28.81;40.40
45323;BME280;31382;50.200;8.674;2023-05-21T11:21:09;99952.16;;;29.32;38.88
45323;BME280;31382;50.200;8.674;2023-05-21T11:26:10;99946.13;;;29.66;38.05
45323;BME280;31382;50.200;8.674;2023-05-21T11:31:25;99936.88;;;29.94;36.80
45323;BME280;31382;50.200;8.674;2023-05-21T11:36:27;99943.41;;;30.20;35.92
45323;BME280;31382;50.200;8.674;2023-05-21T11:41:29;99937.34;;;30.41;35.42
45323;BME280;31382;50.200;8.674;2023-05-21T11:46:32;99929.06;;;30.50;34.20
45323;BME280;31382;50.200;8.674;2023-05-21T11:51:37;99937.13;;;30.69;34.07
45323;BME280;31382;50.200;8.674;2023-05-21T11:56:40;99933.00;;;30.89;33.27
45323;BME280;31382;50.200;8.674;2023-05-21T12:01:42;99937.50;;;30.84;32.87
45323;BME280;31382;50.200;8.674;2023-05-21T12:06:44;99934.47;;;31.12;32.36
45323;BME280;31382;50.200;8.674;2023-05-21T12:11:46;99937.00;;;31.49;32.27
45323;BME280;31382;50.200;8.674;2023-05-21T12:16:47;99925.84;;;32.10;31.26
45323;BME280;31382;50.200;8.674;2023-05-21T12:21:49;99926.78;;;32.22;31.42
45323;BME280;31382;50.200;8.674;2023-05-21T12:26:50;99924.47;;;32.25;31.08
45323;BME280;31382;50.200;8.674;2023-05-21T12:31:52;99924.47;;;32.72;29.83
45323;BME280;31382;50.200;8.674;2023-05-21T12:36:54;99929.06;;;32.97;30.62
45323;BME280;31382;50.200;8.674;2023-05-21T12:41:55;99923.50;;;33.27;28.91
45323;BME280;31382;50.200;8.674;2023-05-21T12:46:57;99918.38;;;33.29;29.29
45323;BME280;31382;50.200;8.674;2023-05-21T12:52:04;99919.19;;;33.51;28.26
45323;BME280;31382;50.200;8.674;2023-05-21T12:57:13;99925.59;;;33.72;28.44
45323;BME280;31382;50.200;8.674;2023-05-21T13:02:18;99921.88;;;34.02;28.13
45323;BME280;31382;50.200;8.674;2023-05-21T13:07:20;99916.47;;;34.17;28.57
45323;BME280;31382;50.200;8.674;2023-05-21T13:12:23;99915.41;;;34.22;27.72
45323;BME280;31382;50.200;8.674;2023-05-21T13:17:25;99915.47;;;34.71;26.88
45323;BME280;31382;50.200;8.674;2023-05-21T13:22:27;99912.09;;;34.66;25.82
45323;BME280;31382;50.200;8.674;2023-05-21T13:27:29;99905.78;;;34.32;26.26
45323;BME280;31382;50.200;8.674;2023-05-21T13:32:31;99902.50;;;34.17;26.64
45323;BME280;31382;50.200;8.674;2023-05-21T13:37:33;99899.19;;;34.49;26.96
45323;BME280;31382;50.200;8.674;2023-05-21T13:42:36;99902.22;;;34.81;26.50
45323;BME280;31382;50.200;8.674;2023-05-21T13:47:38;99895.66;;;35.13;26.03
45323;BME280;31382;50.200;8.674;2023-05-21T13:52:41;99901.94;;;35.10;24.66
45323;BME280;31382;50.200;8.674;2023-05-21T13:57:42;99897.78;;;34.92;25.37
45323;BME280;31382;50.200;8.674;2023-05-21T14:02:44;99896.38;;;34.49;24.77
45323;BME280;31382;50.200;8.674;2023-05-21T14:07:46;99893.00;;;34.55;24.39
45323;BME280;31382;50.200;8.674;2023-05-21T14:12:48;99888.59;;;34.54;25.14
45323;BME280;31382;50.200;8.674;2023-05-21T14:17:49;99891.72;;;34.28;24.88
45323;BME280;31382;50.200;8.674;2023-05-21T14:22:52;99883.50;;;33.98;25.68
45323;BME280;31382;50.200;8.674;2023-05-21T14:27:53;99887.13;;;33.99;25.40
45323;BME280;31382;50.200;8.674;2023-05-21T14:32:55;99887.25;;;34.03;25.26
45323;BME280;31382;50.200;8.674;2023-05-21T14:37:58;99879.38;;;34.17;25.73
45323;BME280;31382;50.200;8.674;2023-05-21T14:42:59;99879.81;;;34.07;25.17
45323;BME280;31382;50.200;8.674;2023-05-21T14:48:01;99873.16;;;33.99;25.41
45323;BME280;31382;50.200;8.674;2023-05-21T14:53:10;99876.75;;;34.00;25.13
45323;BME280;31382;50.200;8.674;2023-05-21T14:58:11;99879.69;;;34.03;25.63
45323;BME280;31382;50.200;8.674;2023-05-21T15:03:13;99873.00;;;34.16;25.75
45323;BME280;31382;50.200;8.674;2023-05-21T15:08:14;99875.63;;;34.13;25.41
45323;BME280;31382;50.200;8.674;2023-05-21T15:13:16;99871.19;;;34.12;25.37
45323;BME280;31382;50.200;8.674;2023-05-21T15:18:17;99872.84;;;34.13;25.47
45323;BME280;31382;50.200;8.674;2023-05-21T15:23:19;99870.38;;;34.11;24.67
45323;BME280;31382;50.200;8.674;2023-05-21T15:28:20;99871.19;;;34.00;25.45
45323;BME280;31382;50.200;8.674;2023-05-21T15:33:23;99867.59;;;33.99;25.54
45323;BME280;31382;50.200;8.674;2023-05-21T15:38:24;99857.81;;;33.93;25.77
45323;BME280;31382;50.200;8.674;2023-05-21T15:43:27;99858.81;;;33.76;26.02
45323;BME280;31382;50.200;8.674;2023-05-21T15:48:28;99859.44;;;33.61;25.93
45323;BME280;31382;50.200;8.674;2023-05-21T15:53:29;99845.78;;;33.68;26.10
45323;BME280;31382;50.200;8.674;2023-05-21T15:58:31;99844.41;;;33.74;26.21
45323;BME280;31382;50.200;8.674;2023-05-21T16:03:32;99844.22;;;34.04;26.08
45323;BME280;31382;50.200;8.674;2023-05-21T16:08:34;99839.59;;;34.20;25.27
45323;BME280;31382;50.200;8.674;2023-05-21T16:13:35;99840.66;;;34.28;25.17
45323;BME280;31382;50.200;8.674;2023-05-21T16:18:37;99847.19;;;34.56;25.43
45323;BME280;31382;50.200;8.674;2023-05-21T16:23:38;99844.72;;;34.80;25.19
45323;BME280;31382;50.200;8.674;2023-05-21T16:28:40;99844.81;;;34.95;24.88
45323;BME280;31382;50.200;8.674;2023-05-21T16:33:41;99838.25;;;35.16;24.38
45323;BME280;31382;50.200;8.674;2023-05-21T16:38:43;99847.03;;;35.30;23.63
45323;BME280;31382;50.200;8.674;2023-05-21T16:43:44;99846.53;;;35.41;23.83
45323;BME280;31382;50.200;8.674;2023-05-21T16:48:46;99842.66;;;35.29;23.62
45323;BME280;31382;50.200;8.674;2023-05-21T16:53:47;99844.53;;;35.25;23.52
45323;BME280;31382;50.200;8.674;2023-05-21T16:58:49;99844.75;;;35.20;23.98
45323;BME280;31382;50.200;8.674;2023-05-21T17:03:50;99841.06;;;35.16;23.99
45323;BME280;31382;50.200;8.674;2023-05-21T17:08:52;99846.28;;;35.05;24.08
45323;BME280;31382;50.200;8.674;2023-05-21T17:13:53;99850.16;;;35.01;24.19
45323;BME280;31382;50.200;8.674;2023-05-21T17:18:55;99849.84;;;34.90;23.92
45323;BME280;31382;50.200;8.674;2023-05-21T17:23:56;99846.56;;;34.63;24.62
45323;BME280;31382;50.200;8.674;2023-05-21T17:28:58;99843.56;;;34.44;24.82
45323;BME280;31382;50.200;8.674;2023-05-21T17:33:59;99850.41;;;34.09;25.41
45323;BME280;31382;50.200;8.674;2023-05-21T17:39:01;99843.75;;;33.89;25.96
45323;BME280;31382;50.200;8.674;2023-05-21T17:44:02;99852.41;;;33.63;25.62
45323;BME280;31382;50.200;8.674;2023-05-21T17:49:04;99852.31;;;33.51;26.25
45323;BME280;31382;50.200;8.674;2023-05-21T17:54:07;99861.66;;;33.34;26.62
45323;BME280;31382;50.200;8.674;2023-05-21T17:59:09;99856.84;;;33.22;26.31
45323;BME280;31382;50.200;8.674;2023-05-21T18:04:11;99860.00;;;32.91;26.70
45323;BME280;31382;50.200;8.674;2023-05-21T18:09:13;99857.25;;;32.52;27.27
45323;BME280;31382;50.200;8.674;2023-05-21T18:14:15;99854.81;;;32.12;27.99
45323;BME280;31382;50.200;8.674;2023-05-21T18:19:17;99856.69;;;31.73;28.54
45323;BME280;31382;50.200;8.674;2023-05-21T18:24:18;99850.53;;;31.33;29.17
45323;BME280;31382;50.200;8.674;2023-05-21T18:29:19;99854.41;;;30.88;29.77
45323;BME280;31382;50.200;8.674;2023-05-21T18:34:21;99854.84;;;30.55;30.71
45323;BME280;31382;50.200;8.674;2023-05-21T18:39:23;99847.47;;;30.19;31.91
45323;BME280;31382;50.200;8.674;2023-05-21T18:44:25;99856.16;;;29.87;32.27
45323;BME280;31382;50.200;8.674;2023-05-21T18:49:27;99848.88;;;29.54;33.23
45323;BME280;31382;50.200;8.674;2023-05-21T18:54:33;99862.69;;;29.23;33.40
45323;BME280;31382;50.200;8.674;2023-05-21T18:59:35;99856.09;;;28.82;34.28
45323;BME280;31382;50.200;8.674;2023-05-21T19:04:38;99858.28;;;28.58;35.19
45323;BME280;31382;50.200;8.674;2023-05-21T19:09:40;99859.78;;;28.22;36.17
45323;BME280;31382;50.200;8.674;2023-05-21T19:14:41;99865.88;;;27.92;36.80
45323;BME280;31382;50.200;8.674;2023-05-21T19:19:45;99854.47;;;27.46;37.28
45323;BME280;31382;50.200;8.674;2023-05-21T19:24:46;99863.03;;;27.07;38.27
45323;BME280;31382;50.200;8.674;2023-05-21T19:29:48;99869.75;;;26.82;38.62
45323;BME280;31382;50.200;8.674;2023-05-21T19:34:50;99868.44;;;26.50;39.20
45323;BME280;31382;50.200;8.674;2023-05-21T19:39:52;99871.88;;;26.12;39.75
45323;BME280;31382;50.200;8.674;2023-05-21T19:44:53;99881.78;;;25.84;40.23
45323;BME280;31382;50.200;8.674;2023-05-21T19:49:55;99886.31;;;25.70;40.51
45323;BME280;31382;50.200;8.674;2023-05-21T19:54:56;99882.63;;;25.50;41.12
45323;BME280;31382;50.200;8.674;2023-05-21T20:00:05;99882.19;;;25.33;41.47
45323;BME280;31382;50.200;8.674;2023-05-21T20:05:10;99882.91;;;24.99;42.04
45323;BME280;31382;50.200;8.674;2023-05-21T20:10:11;99892.63;;;24.81;42.54
45323;BME280;31382;50.200;8.674;2023-05-21T20:15:13;99887.16;;;24.76;42.66
45323;BME280;31382;50.200;8.674;2023-05-21T20:20:15;99893.81;;;24.60;42.87
45323;BME280;31382;50.200;8.674;2023-05-21T20:25:17;99893.59;;;24.51;43.56
45323;BME280;31382;50.200;8.674;2023-05-21T20:30:18;99888.66;;;24.32;43.20
45323;BME280;31382;50.200;8.674;2023-05-21T20:35:19;99896.38;;;24.15;43.48
45323;BME280;31382;50.200;8.674;2023-05-21T20:40:21;99895.63;;;23.84;44.14
45323;BME280;31382;50.200;8.674;2023-05-21T20:45:22;99890.66;;;23.81;44.00
45323;BME280;31382;50.200;8.674;2023-05-21T20:50:24;99886.78;;;23.71;43.97
45323;BME280;31382;50.200;8.674;2023-05-21T20:55:28;99889.53;;;23.71;44.40
45323;BME280;31382;50.200;8.674;2023-05-21T21:00:34;99886.81;;;23.66;45.37
45323;BME280;31382;50.200;8.674;2023-05-21T21:05:38;99887.63;;;23.56;45.89
45323;BME280;31382;50.200;8.674;2023-05-21T21:10:40;99888.97;;;23.44;46.61
45323;BME280;31382;50.200;8.674;2023-05-21T21:15:42;99894.19;;;23.35;46.93
45323;BME280;31382;50.200;8.674;2023-05-21T21:20:44;99889.78;;;23.29;47.04
45323;BME280;31382;50.200;8.674;2023-05-21T21:25:50;99893.31;;;23.19;47.50
45323;BME280;31382;50.200;8.674;2023-05-21T21:30:51;99896.88;;;23.09;48.13
45323;BME280;31382;50.200;8.674;2023-05-21T21:35:53;99903.38;;;22.98;48.59
45323;BME280;31382;50.200;8.674;2023-05-21T21:40:54;99905.25;;;22.82;48.86
45323;BME280;31382;50.200;8.674;2023-05-21T21:45:56;99893.44;;;22.71;49.08
45323;BME280;31382;50.200;8.674;2023-05-21T21:50:57;99901.31;;;22.63;49.41
45323;BME280;31382;50.200;8.674;2023-05-21T21:55:59;99907.81;;;22.46;49.77
45323;BME280;31382;50.200;8.674;2023-05-21T22:01:00;99900.34;;;22.31;49.92
45323;BME280;31382;50.200;8.674;2023-05-21T22:06:02;99898.06;;;22.23;50.46
45323;BME280;31382;50.200;8.674;2023-05-21T22:11:04;99894.75;;;22.16;50.95
45323;BME280;31382;50.200;8.674;2023-05-21T22:16:05;99900.44;;;22.04;51.15
45323;BME280;31382;50.200;8.674;2023-05-21T22:21:10;99899.56;;;21.98;51.61
45323;BME280;31382;50.200;8.674;2023-05-21T22:26:14;99897.00;;;21.87;51.92
45323;BME280;31382;50.200;8.674;2023-05-21T22:31:16;99897.75;;;21.77;52.89
45323;BME280;31382;50.200;8.674;2023-05-21T22:36:17;99901.47;;;21.66;53.09
45323;BME280;31382;50.200;8.674;2023-05-21T22:41:19;99906.94;;;21.38;53.98
45323;BME280;31382;50.200;8.674;2023-05-21T22:46:20;99902.47;;;21.27;54.87
45323;BME280;31382;50.200;8.674;2023-05-21T22:51:22;99905.13;;;21.22;55.22
45323;BME280;31382;50.200;8.674;2023-05-21T22:56:23;99909.53;;;21.23;55.39
45323;BME280;31382;50.200;8.674;2023-05-21T23:01:25;99913.03;;;21.18;55.55
45323;BME280;31382;50.200;8.674;2023-05-21T23:06:26;99910.75;;;21.10;55.56
45323;BME280;31382;50.200;8.674;2023-05-21T23:11:28;99912.09;;;21.08;56.02
45323;BME280;31382;50.200;8.674;2023-05-21T23:16:29;99917.00;;;21.06;55.74
45323;BME280;31382;50.200;8.674;2023-05-21T23:21:32;99907.69;;;21.07;55.72
45323;BME280;31382;50.200;8.674;2023-05-21T23:26:34;99904.16;;;21.06;56.03
45323;BME280;31382;50.200;8.674;2023-05-21T23:31:35;99907.66;;;21.02;56.11
45323;BME280;31382;50.200;8.674;2023-05-21T23:36:37;99913.63;;;20.98;56.37
45323;BME280;31382;50.200;8.674;2023-05-21T23:41:38;99915.78;;;20.96;56.11
45323;BME280;31382;50.200;8.674;2023-05-21T23:46:43;99914.91;;;20.91;56.45
45323;BME280;31382;50.200;8.674;2023-05-21T23:51:44;99922.03;;;20.70;57.21
45323;BME280;31382;50.200;8.674;2023-05-21T23:56:46;99914.66;;;20.53;57.15
